sensor_id;sensor_type;location;lat;lon;timestamp;temperature;humidity
21246;DHT22;10781;50.928;4.440;2022-12-11T00:00:18;3.60;99.90
21246;DHT22;10781;50.928;4.440;2022-12-11T00:02:43;3.50;99.90
21246;DHT22;10781;50.928;4.440;2022-12-11T00:05:09;3.80;99.90
21246;DHT22;10781;50.928;4.440;2022-12-11T00:07:35;3.90;99.90
21246;DHT22;10781;50.928;4.440;2022-12-11T00:10:01;4.00;99.90
21246;DHT22;10781;50.928;4.440;2022-12-11T00:12:29;4.00;99.90
21246;DHT22;10781;50.928;4.440;2022-12-11T00:14:54;4.10;99.90
21246;DHT22;10781;50.928;4.440;2022-12-11T00:17:20;3.90;99.90
21246;DHT22;10781;50.928;4.440;2022-12-11T00:19:46;3.70;99.90
21246;DHT22;10781;50.928;4.440;2022-12-11T00:22:11;3.80;99.90
21246;DHT22;10781;50.928;4.440;2022-12-11T00:24:37;3.80;99.90
21246;DHT22;10781;50.928;4.440;2022-12-11T00:27:02;3.70;99.90
21246;DHT22;10781;50.928;4.440;2022-12-11T00:29:29;3.80;99.90
21246;DHT22;10781;50.928;4.440;2022-12-11T00:31:55;3.80;99.90
21246;DHT22;10781;50.928;4.440;2022-12-11T00:34:20;3.60;99.90
21246;DHT22;10781;50.928;4.440;2022-12-11T00:36:46;3.60;99.90
21246;DHT22;10781;50.928;4.440;2022-12-11T00:39:14;3.80;99.90
21246;DHT22;10781;50.928;4.440;2022-12-11T00:41:40;3.80;99.90
21246;DHT22;10781;50.928;4.440;2022-12-11T00:44:05;4.00;99.90
21246;DHT22;10781;50.928;4.440;2022-12-11T00:46:31;4.10;99.90
21246;DHT22;10781;50.928;4.440;2022-12-11T00:48:57;4.00;99.90
21246;DHT22;10781;50.928;4.440;2022-12-11T00:51:23;4.00;99.90
21246;DHT22;10781;50.928;4.440;2022-12-11T00:53:50;3.90;99.90
21246;DHT22;10781;50.928;4.440;2022-12-11T00:56:18;4.00;99.90
21246;DHT22;10781;50.928;4.440;2022-12-11T00:58:45;4.10;99.90
21246;DHT22;10781;50.928;4.440;2022-12-11T01:01:17;4.30;99.90
21246;DHT22;10781;50.928;4.440;2022-12-11T01:03:43;4.20;99.90
21246;DHT22;10781;50.928;4.440;2022-12-11T01:06:13;4.20;99.90
21246;DHT22;10781;50.928;4.440;2022-12-11T01:08:40;4.30;99.90
21246;DHT22;10781;50.928;4.440;2022-12-11T01:11:08;4.20;99.90
21246;DHT22;10781;50.928;4.440;2022-12-11T01:13:34;4.20;99.90
21246;DHT22;10781;50.928;4.440;2022-12-11T01:16:14;4.00;99.90
21246;DHT22;10781;50.928;4.440;2022-12-11T01:18:40;4.00;99.90
21246;DHT22;10781;50.928;4.440;2022-12-11T01:21:08;4.00;99.90
21246;DHT22;10781;50.928;4.440;2022-12-11T01:23:34;4.10;99.90
21246;DHT22;10781;50.928;4.440;2022-12-11T01:26:08;4.30;99.90
21246;DHT22;10781;50.928;4.440;2022-12-11T01:28:40;4.30;99.90
21246;DHT22;10781;50.928;4.440;2022-12-11T01:31:13;4.30;99.90
21246;DHT22;10781;50.928;4.440;2022-12-11T01:33:41;4.10;99.90
21246;DHT22;10781;50.928;4.440;2022-12-11T01:36:09;4.00;99.90
21246;DHT22;10781;50.928;4.440;2022-12-11T01:38:35;3.90;99.90
21246;DHT22;10781;50.928;4.440;2022-12-11T01:41:01;4.00;99.90
21246;DHT22;10781;50.928;4.440;2022-12-11T01:43:27;3.90;99.90
21246;DHT22;10781;50.928;4.440;2022-12-11T01:45:53;4.00;99.90
21246;DHT22;10781;50.928;4.440;2022-12-11T01:48:31;4.10;99.90
21246;DHT22;10781;50.928;4.440;2022-12-11T01:51:04;4.20;99.90
21246;DHT22;10781;50.928;4.440;2022-12-11T01:53:34;4.00;99.90
21246;DHT22;10781;50.928;4.440;2022-12-11T01:56:02;4.10;99.90
21246;DHT22;10781;50.928;4.440;2022-12-11T01:58:35;4.20;99.90
21246;DHT22;10781;50.928;4.440;2022-12-11T02:01:02;4.40;99.90
21246;DHT22;10781;50.928;4.440;2022-12-11T02:03:27;4.40;99.90
21246;DHT22;10781;50.928;4.440;2022-12-11T02:05:53;4.40;99.90
21246;DHT22;10781;50.928;4.440;2022-12-11T02:08:19;4.60;99.90
21246;DHT22;10781;50.928;4.440;2022-12-11T02:13:31;4.40;99.90
21246;DHT22;10781;50.928;4.440;2022-12-11T02:16:18;4.40;99.90
21246;DHT22;10781;50.928;4.440;2022-12-11T02:19:09;4.50;99.90
21246;DHT22;10781;50.928;4.440;2022-12-11T02:21:42;4.50;99.90
21246;DHT22;10781;50.928;4.440;2022-12-11T02:24:39;4.70;99.90
21246;DHT22;10781;50.928;4.440;2022-12-11T02:27:41;4.70;99.90
21246;DHT22;10781;50.928;4.440;2022-12-11T02:30:10;5.00;99.90
21246;DHT22;10781;50.928;4.440;2022-12-11T02:32:55;4.90;99.90
21246;DHT22;10781;50.928;4.440;2022-12-11T02:35:29;4.90;99.90
21246;DHT22;10781;50.928;4.440;2022-12-11T02:38:04;4.70;99.90
21246;DHT22;10781;50.928;4.440;2022-12-11T02:40:31;4.70;99.90
21246;DHT22;10781;50.928;4.440;2022-12-11T02:43:02;4.70;99.90
21246;DHT22;10781;50.928;4.440;2022-12-11T02:45:30;4.60;99.90
21246;DHT22;10781;50.928;4.440;2022-12-11T02:48:00;4.60;99.90
21246;DHT22;10781;50.928;4.440;2022-12-11T02:50:28;4.70;99.90
21246;DHT22;10781;50.928;4.440;2022-12-11T02:52:55;4.70;99.90
21246;DHT22;10781;50.928;4.440;2022-12-11T02:55:22;4.50;99.90
21246;DHT22;10781;50.928;4.440;2022-12-11T02:57:55;4.60;99.90
21246;DHT22;10781;50.928;4.440;2022-12-11T03:00:24;4.70;99.90
21246;DHT22;10781;50.928;4.440;2022-12-11T03:02:49;4.50;99.90
21246;DHT22;10781;50.928;4.440;2022-12-11T03:05:15;4.60;99.90
21246;DHT22;10781;50.928;4.440;2022-12-11T03:07:42;4.70;99.90
21246;DHT22;10781;50.928;4.440;2022-12-11T03:10:11;4.60;99.90
21246;DHT22;10781;50.928;4.440;2022-12-11T03:12:42;4.50;99.90
21246;DHT22;10781;50.928;4.440;2022-12-11T03:15:12;4.80;99.90
21246;DHT22;10781;50.928;4.440;2022-12-11T03:28:13;4.60;99.90
21246;DHT22;10781;50.928;4.440;2022-12-11T03:30:41;4.70;99.90
21246;DHT22;10781;50.928;4.440;2022-12-11T03:33:31;4.70;99.90
21246;DHT22;10781;50.928;4.440;2022-12-11T03:36:04;4.50;99.90
21246;DHT22;10781;50.928;4.440;2022-12-11T03:38:35;4.50;99.90
21246;DHT22;10781;50.928;4.440;2022-12-11T03:41:03;4.40;99.90
21246;DHT22;10781;50.928;4.440;2022-12-11T03:43:30;4.50;99.90
21246;DHT22;10781;50.928;4.440;2022-12-11T03:45:58;4.40;99.90
21246;DHT22;10781;50.928;4.440;2022-12-11T03:48:27;4.50;99.90
21246;DHT22;10781;50.928;4.440;2022-12-11T03:50:54;4.50;99.90
21246;DHT22;10781;50.928;4.440;2022-12-11T03:53:20;4.40;99.90
21246;DHT22;10781;50.928;4.440;2022-12-11T03:55:47;4.30;99.90
21246;DHT22;10781;50.928;4.440;2022-12-11T03:58:13;4.40;99.90
21246;DHT22;10781;50.928;4.440;2022-12-11T04:00:39;4.40;99.90
21246;DHT22;10781;50.928;4.440;2022-12-11T04:03:06;4.40;99.90
21246;DHT22;10781;50.928;4.440;2022-12-11T04:05:42;4.50;99.90
21246;DHT22;10781;50.928;4.440;2022-12-11T04:08:08;4.40;99.90
21246;DHT22;10781;50.928;4.440;2022-12-11T04:10:33;4.20;99.90
21246;DHT22;10781;50.928;4.440;2022-12-11T04:12:59;4.20;99.90
21246;DHT22;10781;50.928;4.440;2022-12-11T04:15:25;4.20;99.90
21246;DHT22;10781;50.928;4.440;2022-12-11T04:17:50;4.30;99.90
21246;DHT22;10781;50.928;4.440;2022-12-11T04:20:34;4.30;99.90
21246;DHT22;10781;50.928;4.440;2022-12-11T04:23:19;4.60;99.90
21246;DHT22;10781;50.928;4.440;2022-12-11T04:26:14;4.60;99.90
21246;DHT22;10781;50.928;4.440;2022-12-11T04:28:40;4.50;99.90
21246;DHT22;10781;50.928;4.440;2022-12-11T04:31:11;4.50;99.90
21246;DHT22;10781;50.928;4.440;2022-12-11T04:33:37;4.70;99.90
21246;DHT22;10781;50.928;4.440;2022-12-11T04:36:02;4.70;99.90
21246;DHT22;10781;50.928;4.440;2022-12-11T04:38:28;4.60;99.90
21246;DHT22;10781;50.928;4.440;2022-12-11T04:40:58;4.80;99.90
21246;DHT22;10781;50.928;4.440;2022-12-11T04:43:24;4.60;99.90
21246;DHT22;10781;50.928;4.440;2022-12-11T04:45:50;4.50;99.90
21246;DHT22;10781;50.928;4.440;2022-12-11T04:48:16;4.40;99.90
21246;DHT22;10781;50.928;4.440;2022-12-11T04:50:41;4.60;99.90
21246;DHT22;10781;50.928;4.440;2022-12-11T04:53:07;4.60;99.90
21246;DHT22;10781;50.928;4.440;2022-12-11T04:55:32;4.60;99.90
21246;DHT22;10781;50.928;4.440;2022-12-11T04:57:58;4.60;99.90
21246;DHT22;10781;50.928;4.440;2022-12-11T05:00:23;4.70;99.90
21246;DHT22;10781;50.928;4.440;2022-12-11T05:02:49;4.50;99.90
21246;DHT22;10781;50.928;4.440;2022-12-11T05:05:15;4.60;99.90
21246;DHT22;10781;50.928;4.440;2022-12-11T05:07:40;4.70;99.90
21246;DHT22;10781;50.928;4.440;2022-12-11T05:10:07;4.30;99.90
21246;DHT22;10781;50.928;4.440;2022-12-11T05:12:32;4.40;99.90
21246;DHT22;10781;50.928;4.440;2022-12-11T05:14:58;4.30;99.90
21246;DHT22;10781;50.928;4.440;2022-12-11T05:17:24;4.40;99.90
21246;DHT22;10781;50.928;4.440;2022-12-11T05:19:50;4.70;99.90
21246;DHT22;10781;50.928;4.440;2022-12-11T05:22:16;4.80;99.90
21246;DHT22;10781;50.928;4.440;2022-12-11T05:24:44;4.80;99.90
21246;DHT22;10781;50.928;4.440;2022-12-11T05:27:10;4.90;99.90
21246;DHT22;10781;50.928;4.440;2022-12-11T05:29:36;5.00;99.90
21246;DHT22;10781;50.928;4.440;2022-12-11T05:32:02;5.10;99.90
21246;DHT22;10781;50.928;4.440;2022-12-11T05:34:28;5.10;99.90
21246;DHT22;10781;50.928;4.440;2022-12-11T05:36:53;5.10;99.90
21246;DHT22;10781;50.928;4.440;2022-12-11T05:39:19;4.80;99.90
21246;DHT22;10781;50.928;4.440;2022-12-11T05:41:45;4.80;99.90
21246;DHT22;10781;50.928;4.440;2022-12-11T05:44:12;5.00;99.90
21246;DHT22;10781;50.928;4.440;2022-12-11T05:46:38;5.10;99.90
21246;DHT22;10781;50.928;4.440;2022-12-11T05:49:04;5.20;99.90
21246;DHT22;10781;50.928;4.440;2022-12-11T05:51:31;5.00;99.90
21246;DHT22;10781;50.928;4.440;2022-12-11T05:53:59;4.80;99.90
21246;DHT22;10781;50.928;4.440;2022-12-11T05:56:29;4.80;99.90
21246;DHT22;10781;50.928;4.440;2022-12-11T05:58:56;4.80;99.90
21246;DHT22;10781;50.928;4.440;2022-12-11T06:01:32;4.80;99.90
21246;DHT22;10781;50.928;4.440;2022-12-11T06:03:58;4.90;99.90
21246;DHT22;10781;50.928;4.440;2022-12-11T06:06:24;5.00;99.90
21246;DHT22;10781;50.928;4.440;2022-12-11T06:08:52;4.80;99.90
21246;DHT22;10781;50.928;4.440;2022-12-11T06:11:19;4.90;99.90
21246;DHT22;10781;50.928;4.440;2022-12-11T06:13:45;5.00;99.90
21246;DHT22;10781;50.928;4.440;2022-12-11T06:16:11;4.90;99.90
21246;DHT22;10781;50.928;4.440;2022-12-11T06:18:42;4.80;99.90
21246;DHT22;10781;50.928;4.440;2022-12-11T06:21:16;4.70;99.90
21246;DHT22;10781;50.928;4.440;2022-12-11T06:23:42;4.70;99.90
21246;DHT22;10781;50.928;4.440;2022-12-11T06:26:09;4.70;99.90
21246;DHT22;10781;50.928;4.440;2022-12-11T06:28:36;4.70;99.90
21246;DHT22;10781;50.928;4.440;2022-12-11T06:31:02;4.60;99.90
21246;DHT22;10781;50.928;4.440;2022-12-11T06:33:28;4.40;99.90
21246;DHT22;10781;50.928;4.440;2022-12-11T06:35:54;4.40;99.90
21246;DHT22;10781;50.928;4.440;2022-12-11T06:38:21;4.20;99.90
21246;DHT22;10781;50.928;4.440;2022-12-11T06:40:57;4.30;99.90
21246;DHT22;10781;50.928;4.440;2022-12-11T06:43:23;4.40;99.90
21246;DHT22;10781;50.928;4.440;2022-12-11T06:45:50;4.60;99.90
21246;DHT22;10781;50.928;4.440;2022-12-11T06:48:16;4.80;99.90
21246;DHT22;10781;50.928;4.440;2022-12-11T06:50:42;5.00;99.90
21246;DHT22;10781;50.928;4.440;2022-12-11T06:53:09;4.80;99.90
21246;DHT22;10781;50.928;4.440;2022-12-11T06:55:35;4.60;99.90
21246;DHT22;10781;50.928;4.440;2022-12-11T06:58:01;4.40;99.90
21246;DHT22;10781;50.928;4.440;2022-12-11T07:00:26;4.30;99.90
21246;DHT22;10781;50.928;4.440;2022-12-11T07:02:52;4.40;99.90
21246;DHT22;10781;50.928;4.440;2022-12-11T07:05:18;4.50;99.90
21246;DHT22;10781;50.928;4.440;2022-12-11T07:07:44;4.60;99.90
21246;DHT22;10781;50.928;4.440;2022-12-11T07:10:10;4.90;99.90
21246;DHT22;10781;50.928;4.440;2022-12-11T07:12:37;4.90;99.90
21246;DHT22;10781;50.928;4.440;2022-12-11T07:15:04;4.90;99.90
21246;DHT22;10781;50.928;4.440;2022-12-11T07:17:30;4.70;99.90
21246;DHT22;10781;50.928;4.440;2022-12-11T07:19:55;4.40;99.90
21246;DHT22;10781;50.928;4.440;2022-12-11T07:22:21;4.30;99.90
21246;DHT22;10781;50.928;4.440;2022-12-11T07:24:47;4.30;99.90
21246;DHT22;10781;50.928;4.440;2022-12-11T07:27:13;4.20;99.90
21246;DHT22;10781;50.928;4.440;2022-12-11T07:29:38;4.10;99.90
21246;DHT22;10781;50.928;4.440;2022-12-11T07:32:04;4.20;99.90
21246;DHT22;10781;50.928;4.440;2022-12-11T07:34:30;4.00;99.90
21246;DHT22;10781;50.928;4.440;2022-12-11T07:36:55;3.80;99.90
21246;DHT22;10781;50.928;4.440;2022-12-11T07:39:21;3.90;99.90
21246;DHT22;10781;50.928;4.440;2022-12-11T07:41:47;3.80;99.90
21246;DHT22;10781;50.928;4.440;2022-12-11T07:44:12;3.80;99.90
21246;DHT22;10781;50.928;4.440;2022-12-11T07:46:38;3.90;99.90
21246;DHT22;10781;50.928;4.440;2022-12-11T07:49:05;3.90;99.90
21246;DHT22;10781;50.928;4.440;2022-12-11T07:51:32;4.00;99.90
21246;DHT22;10781;50.928;4.440;2022-12-11T07:54:01;4.20;99.90
21246;DHT22;10781;50.928;4.440;2022-12-11T07:56:28;4.30;99.90
21246;DHT22;10781;50.928;4.440;2022-12-11T07:58:55;4.40;99.90
21246;DHT22;10781;50.928;4.440;2022-12-11T08:01:23;4.40;99.90
21246;DHT22;10781;50.928;4.440;2022-12-11T08:03:51;4.30;99.90
21246;DHT22;10781;50.928;4.440;2022-12-11T08:06:18;4.00;99.90
21246;DHT22;10781;50.928;4.440;2022-12-11T08:08:43;4.00;99.90
21246;DHT22;10781;50.928;4.440;2022-12-11T08:11:11;3.90;99.90
21246;DHT22;10781;50.928;4.440;2022-12-11T08:13:39;3.80;99.90
21246;DHT22;10781;50.928;4.440;2022-12-11T08:16:13;3.70;99.90
21246;DHT22;10781;50.928;4.440;2022-12-11T08:18:39;3.80;99.90
21246;DHT22;10781;50.928;4.440;2022-12-11T08:21:07;3.90;99.90
21246;DHT22;10781;50.928;4.440;2022-12-11T08:23:34;4.10;99.90
21246;DHT22;10781;50.928;4.440;2022-12-11T08:26:04;4.00;99.90
21246;DHT22;10781;50.928;4.440;2022-12-11T08:28:31;4.00;99.90
21246;DHT22;10781;50.928;4.440;2022-12-11T08:30:57;4.20;99.90
21246;DHT22;10781;50.928;4.440;2022-12-11T08:33:23;4.20;99.90
21246;DHT22;10781;50.928;4.440;2022-12-11T08:35:50;3.80;99.90
21246;DHT22;10781;50.928;4.440;2022-12-11T08:38:16;3.70;99.90
21246;DHT22;10781;50.928;4.440;2022-12-11T08:40:42;3.90;99.90
21246;DHT22;10781;50.928;4.440;2022-12-11T08:43:09;3.80;99.90
21246;DHT22;10781;50.928;4.440;2022-12-11T08:45:37;3.60;99.90
21246;DHT22;10781;50.928;4.440;2022-12-11T08:48:03;3.00;99.90
21246;DHT22;10781;50.928;4.440;2022-12-11T08:50:29;3.30;99.90
21246;DHT22;10781;50.928;4.440;2022-12-11T08:52:56;3.20;99.90
21246;DHT22;10781;50.928;4.440;2022-12-11T08:55:22;3.30;99.90
21246;DHT22;10781;50.928;4.440;2022-12-11T08:57:48;3.60;99.90
21246;DHT22;10781;50.928;4.440;2022-12-11T09:00:14;3.70;99.90
21246;DHT22;10781;50.928;4.440;2022-12-11T09:02:40;3.70;99.90
21246;DHT22;10781;50.928;4.440;2022-12-11T09:05:06;4.00;99.90
21246;DHT22;10781;50.928;4.440;2022-12-11T09:07:35;4.30;99.90
21246;DHT22;10781;50.928;4.440;2022-12-11T09:10:05;4.30;99.90
21246;DHT22;10781;50.928;4.440;2022-12-11T09:12:33;4.60;99.90
21246;DHT22;10781;50.928;4.440;2022-12-11T09:14:59;4.70;99.90
21246;DHT22;10781;50.928;4.440;2022-12-11T09:17:25;4.60;99.90
21246;DHT22;10781;50.928;4.440;2022-12-11T09:19:52;4.20;99.90
21246;DHT22;10781;50.928;4.440;2022-12-11T09:22:18;3.70;99.90
21246;DHT22;10781;50.928;4.440;2022-12-11T09:24:43;3.60;99.90
21246;DHT22;10781;50.928;4.440;2022-12-11T09:27:10;3.60;99.90
21246;DHT22;10781;50.928;4.440;2022-12-11T09:29:37;4.00;99.90
21246;DHT22;10781;50.928;4.440;2022-12-11T09:32:03;3.90;99.90
21246;DHT22;10781;50.928;4.440;2022-12-11T09:34:29;4.00;99.90
21246;DHT22;10781;50.928;4.440;2022-12-11T09:36:56;3.90;99.90
21246;DHT22;10781;50.928;4.440;2022-12-11T09:39:22;4.10;99.90
21246;DHT22;10781;50.928;4.440;2022-12-11T09:44:38;4.40;99.90
21246;DHT22;10781;50.928;4.440;2022-12-11T09:47:40;4.60;99.90
21246;DHT22;10781;50.928;4.440;2022-12-11T09:50:15;4.50;99.90
21246;DHT22;10781;50.928;4.440;2022-12-11T09:53:22;4.30;99.90
21246;DHT22;10781;50.928;4.440;2022-12-11T09:56:24;4.20;99.90
21246;DHT22;10781;50.928;4.440;2022-12-11T09:59:26;4.20;99.90
21246;DHT22;10781;50.928;4.440;2022-12-11T10:01:59;4.10;99.90
21246;DHT22;10781;50.928;4.440;2022-12-11T10:10:40;4.00;99.90
21246;DHT22;10781;50.928;4.440;2022-12-11T10:12:57;3.90;99.90
21246;DHT22;10781;50.928;4.440;2022-12-11T10:15:53;3.70;99.90
21246;DHT22;10781;50.928;4.440;2022-12-11T10:18:22;3.70;99.90
21246;DHT22;10781;50.928;4.440;2022-12-11T10:20:52;3.80;99.90
21246;DHT22;10781;50.928;4.440;2022-12-11T10:23:33;3.90;99.90
21246;DHT22;10781;50.928;4.440;2022-12-11T10:26:16;3.70;99.90
21246;DHT22;10781;50.928;4.440;2022-12-11T10:28:43;3.60;99.90
21246;DHT22;10781;50.928;4.440;2022-12-11T10:34:28;3.80;99.90
21246;DHT22;10781;50.928;4.440;2022-12-11T10:36:57;3.90;99.90
21246;DHT22;10781;50.928;4.440;2022-12-11T10:39:23;3.90;99.90
21246;DHT22;10781;50.928;4.440;2022-12-11T10:41:54;4.00;99.90
21246;DHT22;10781;50.928;4.440;2022-12-11T10:47:01;4.10;99.90
21246;DHT22;10781;50.928;4.440;2022-12-11T10:49:30;4.20;99.90
21246;DHT22;10781;50.928;4.440;2022-12-11T10:51:56;4.20;99.90
21246;DHT22;10781;50.928;4.440;2022-12-11T10:54:38;4.50;99.90
21246;DHT22;10781;50.928;4.440;2022-12-11T10:57:06;4.10;99.90
21246;DHT22;10781;50.928;4.440;2022-12-11T11:01:59;3.90;99.90
21246;DHT22;10781;50.928;4.440;2022-12-11T11:04:36;3.80;99.90
21246;DHT22;10781;50.928;4.440;2022-12-11T11:07:17;3.90;99.90
21246;DHT22;10781;50.928;4.440;2022-12-11T11:09:44;4.10;99.90
21246;DHT22;10781;50.928;4.440;2022-12-11T11:14:43;4.70;99.90
21246;DHT22;10781;50.928;4.440;2022-12-11T11:17:14;5.10;99.90
21246;DHT22;10781;50.928;4.440;2022-12-11T11:19:41;5.50;99.90
21246;DHT22;10781;50.928;4.440;2022-12-11T11:22:15;5.60;99.90
21246;DHT22;10781;50.928;4.440;2022-12-11T11:27:35;5.70;99.90
21246;DHT22;10781;50.928;4.440;2022-12-11T11:30:29;5.90;99.90
21246;DHT22;10781;50.928;4.440;2022-12-11T11:33:12;6.20;99.90
21246;DHT22;10781;50.928;4.440;2022-12-11T11:38:36;6.80;99.90
21246;DHT22;10781;50.928;4.440;2022-12-11T11:41:18;6.70;99.90
21246;DHT22;10781;50.928;4.440;2022-12-11T11:44:08;6.70;99.90
21246;DHT22;10781;50.928;4.440;2022-12-11T11:46:47;6.80;99.90
21246;DHT22;10781;50.928;4.440;2022-12-11T11:51:55;6.60;99.90
21246;DHT22;10781;50.928;4.440;2022-12-11T11:57:47;6.70;99.90
21246;DHT22;10781;50.928;4.440;2022-12-11T12:00:20;6.90;99.90
21246;DHT22;10781;50.928;4.440;2022-12-11T12:02:49;7.10;99.90
21246;DHT22;10781;50.928;4.440;2022-12-11T12:05:24;7.20;99.90
21246;DHT22;10781;50.928;4.440;2022-12-11T12:08:06;7.00;99.90
21246;DHT22;10781;50.928;4.440;2022-12-11T12:13:10;6.40;99.90
21246;DHT22;10781;50.928;4.440;2022-12-11T12:15:56;6.40;99.90
21246;DHT22;10781;50.928;4.440;2022-12-11T12:21:37;6.10;99.90
21246;DHT22;10781;50.928;4.440;2022-12-11T12:26:36;6.50;99.90
21246;DHT22;10781;50.928;4.440;2022-12-11T12:32:14;7.20;99.90
21246;DHT22;10781;50.928;4.440;2022-12-11T12:40:46;6.90;99.90
21246;DHT22;10781;50.928;4.440;2022-12-11T12:48:46;6.80;99.90
21246;DHT22;10781;50.928;4.440;2022-12-11T12:51:14;6.90;99.90
21246;DHT22;10781;50.928;4.440;2022-12-11T12:53:47;6.90;99.90
21246;DHT22;10781;50.928;4.440;2022-12-11T12:56:14;7.10;99.90
21246;DHT22;10781;50.928;4.440;2022-12-11T12:58:43;6.90;99.90
21246;DHT22;10781;50.928;4.440;2022-12-11T13:01:18;6.50;99.90
21246;DHT22;10781;50.928;4.440;2022-12-11T13:06:36;6.10;99.90
21246;DHT22;10781;50.928;4.440;2022-12-11T13:11:41;6.00;99.90
21246;DHT22;10781;50.928;4.440;2022-12-11T13:14:29;6.00;99.90
21246;DHT22;10781;50.928;4.440;2022-12-11T13:17:22;6.10;99.90
21246;DHT22;10781;50.928;4.440;2022-12-11T13:19:50;6.10;99.90
21246;DHT22;10781;50.928;4.440;2022-12-11T13:22:22;6.10;99.90
21246;DHT22;10781;50.928;4.440;2022-12-11T13:27:38;6.10;99.90
21246;DHT22;10781;50.928;4.440;2022-12-11T13:32:48;5.90;99.90
21246;DHT22;10781;50.928;4.440;2022-12-11T13:35:16;5.70;99.90
21246;DHT22;10781;50.928;4.440;2022-12-11T13:37:48;5.80;99.90
21246;DHT22;10781;50.928;4.440;2022-12-11T13:40:39;5.80;99.90
21246;DHT22;10781;50.928;4.440;2022-12-11T13:43:20;5.90;99.90
21246;DHT22;10781;50.928;4.440;2022-12-11T13:45:58;5.90;99.90
21246;DHT22;10781;50.928;4.440;2022-12-11T13:48:38;5.60;99.90
21246;DHT22;10781;50.928;4.440;2022-12-11T13:51:12;5.50;99.90
21246;DHT22;10781;50.928;4.440;2022-12-11T13:53:46;5.60;99.90
21246;DHT22;10781;50.928;4.440;2022-12-11T13:56:17;5.60;99.90
21246;DHT22;10781;50.928;4.440;2022-12-11T13:58:44;5.70;99.90
21246;DHT22;10781;50.928;4.440;2022-12-11T14:01:19;5.90;99.90
21246;DHT22;10781;50.928;4.440;2022-12-11T14:04:06;5.70;99.90
21246;DHT22;10781;50.928;4.440;2022-12-11T14:06:35;5.70;99.90
21246;DHT22;10781;50.928;4.440;2022-12-11T14:09:03;5.60;99.90
21246;DHT22;10781;50.928;4.440;2022-12-11T14:11:39;5.50;99.90
21246;DHT22;10781;50.928;4.440;2022-12-11T14:16:36;5.20;99.90
21246;DHT22;10781;50.928;4.440;2022-12-11T14:19:05;4.80;99.90
21246;DHT22;10781;50.928;4.440;2022-12-11T14:21:32;4.90;99.90
21246;DHT22;10781;50.928;4.440;2022-12-11T14:24:00;5.10;99.90
21246;DHT22;10781;50.928;4.440;2022-12-11T14:26:33;5.30;99.90
21246;DHT22;10781;50.928;4.440;2022-12-11T14:28:59;5.30;99.90
21246;DHT22;10781;50.928;4.440;2022-12-11T14:31:40;5.20;99.90
21246;DHT22;10781;50.928;4.440;2022-12-11T14:34:34;4.90;99.90
21246;DHT22;10781;50.928;4.440;2022-12-11T14:37:02;4.60;99.90
21246;DHT22;10781;50.928;4.440;2022-12-11T14:39:57;4.60;99.90
21246;DHT22;10781;50.928;4.440;2022-12-11T14:42:28;4.50;99.90
21246;DHT22;10781;50.928;4.440;2022-12-11T14:45:11;3.90;99.90
21246;DHT22;10781;50.928;4.440;2022-12-11T14:47:41;3.80;99.90
21246;DHT22;10781;50.928;4.440;2022-12-11T14:50:21;3.90;99.90
21246;DHT22;10781;50.928;4.440;2022-12-11T14:52:55;4.10;99.90
21246;DHT22;10781;50.928;4.440;2022-12-11T14:55:33;4.20;99.90
21246;DHT22;10781;50.928;4.440;2022-12-11T14:58:14;4.20;99.90
21246;DHT22;10781;50.928;4.440;2022-12-11T15:00:40;4.20;99.90
21246;DHT22;10781;50.928;4.440;2022-12-11T15:03:21;4.30;99.90
21246;DHT22;10781;50.928;4.440;2022-12-11T15:05:56;4.30;99.90
21246;DHT22;10781;50.928;4.440;2022-12-11T15:08:28;4.30;99.90
21246;DHT22;10781;50.928;4.440;2022-12-11T15:11:06;3.90;99.90
21246;DHT22;10781;50.928;4.440;2022-12-11T15:16:41;3.30;99.90
21246;DHT22;10781;50.928;4.440;2022-12-11T15:19:18;3.20;99.90
21246;DHT22;10781;50.928;4.440;2022-12-11T15:21:45;3.20;99.90
21246;DHT22;10781;50.928;4.440;2022-12-11T15:24:27;3.40;99.90
21246;DHT22;10781;50.928;4.440;2022-12-11T15:26:58;3.40;99.90
21246;DHT22;10781;50.928;4.440;2022-12-11T15:29:32;3.50;99.90
21246;DHT22;10781;50.928;4.440;2022-12-11T15:32:18;3.70;99.90
21246;DHT22;10781;50.928;4.440;2022-12-11T15:34:53;3.90;99.90
21246;DHT22;10781;50.928;4.440;2022-12-11T15:37:37;4.00;99.90
21246;DHT22;10781;50.928;4.440;2022-12-11T15:40:05;4.00;99.90
21246;DHT22;10781;50.928;4.440;2022-12-11T15:42:39;4.10;99.90
21246;DHT22;10781;50.928;4.440;2022-12-11T15:45:08;4.20;99.90
21246;DHT22;10781;50.928;4.440;2022-12-11T15:47:39;4.50;99.90
21246;DHT22;10781;50.928;4.440;2022-12-11T15:50:20;4.20;99.90
21246;DHT22;10781;50.928;4.440;2022-12-11T15:53:08;4.20;99.90
21246;DHT22;10781;50.928;4.440;2022-12-11T15:55:34;4.30;99.90
21246;DHT22;10781;50.928;4.440;2022-12-11T15:58:04;4.10;99.90
21246;DHT22;10781;50.928;4.440;2022-12-11T16:00:31;3.90;99.90
21246;DHT22;10781;50.928;4.440;2022-12-11T16:02:57;3.80;99.90
21246;DHT22;10781;50.928;4.440;2022-12-11T16:05:24;3.60;99.90
21246;DHT22;10781;50.928;4.440;2022-12-11T16:07:50;3.40;99.90
21246;DHT22;10781;50.928;4.440;2022-12-11T16:10:18;3.30;99.90
21246;DHT22;10781;50.928;4.440;2022-12-11T16:12:44;3.30;99.90
21246;DHT22;10781;50.928;4.440;2022-12-11T16:15:11;3.40;99.90
21246;DHT22;10781;50.928;4.440;2022-12-11T16:17:38;3.60;99.90
21246;DHT22;10781;50.928;4.440;2022-12-11T16:20:05;3.90;99.90
21246;DHT22;10781;50.928;4.440;2022-12-11T16:22:32;4.00;99.90
21246;DHT22;10781;50.928;4.440;2022-12-11T16:24:58;4.00;99.90
21246;DHT22;10781;50.928;4.440;2022-12-11T16:27:24;3.90;99.90
21246;DHT22;10781;50.928;4.440;2022-12-11T16:29:50;3.90;99.90
21246;DHT22;10781;50.928;4.440;2022-12-11T16:32:15;4.10;99.90
21246;DHT22;10781;50.928;4.440;2022-12-11T16:34:41;4.20;99.90
21246;DHT22;10781;50.928;4.440;2022-12-11T16:37:09;3.90;99.90
21246;DHT22;10781;50.928;4.440;2022-12-11T16:39:37;3.70;99.90
21246;DHT22;10781;50.928;4.440;2022-12-11T16:42:04;3.70;99.90
21246;DHT22;10781;50.928;4.440;2022-12-11T16:44:30;3.70;99.90
21246;DHT22;10781;50.928;4.440;2022-12-11T16:46:57;3.90;99.90
21246;DHT22;10781;50.928;4.440;2022-12-11T16:49:23;3.90;99.90
21246;DHT22;10781;50.928;4.440;2022-12-11T16:51:49;3.70;99.90
21246;DHT22;10781;50.928;4.440;2022-12-11T16:54:17;3.60;99.90
21246;DHT22;10781;50.928;4.440;2022-12-11T16:56:44;3.60;99.90
21246;DHT22;10781;50.928;4.440;2022-12-11T16:59:10;3.40;99.90
21246;DHT22;10781;50.928;4.440;2022-12-11T17:01:37;3.30;99.90
21246;DHT22;10781;50.928;4.440;2022-12-11T17:04:04;3.40;99.90
21246;DHT22;10781;50.928;4.440;2022-12-11T17:06:30;3.40;99.90
21246;DHT22;10781;50.928;4.440;2022-12-11T17:08:56;3.30;99.90
21246;DHT22;10781;50.928;4.440;2022-12-11T17:11:22;3.40;99.90
21246;DHT22;10781;50.928;4.440;2022-12-11T17:13:54;3.30;99.90
21246;DHT22;10781;50.928;4.440;2022-12-11T17:16:21;3.20;99.90
21246;DHT22;10781;50.928;4.440;2022-12-11T17:18:49;3.20;99.90
21246;DHT22;10781;50.928;4.440;2022-12-11T17:21:16;3.30;99.90
21246;DHT22;10781;50.928;4.440;2022-12-11T17:23:42;3.20;99.90
21246;DHT22;10781;50.928;4.440;2022-12-11T17:26:08;3.20;99.90